createdAt,value
2018-04-09T00:03:11.933Z,4.57
2018-04-09T00:08:19.750Z,5.20
2018-04-09T00:10:46.844Z,4.67
2018-04-09T00:13:14.690Z,6.67
2018-04-09T00:15:42.706Z,5.97
2018-04-09T00:18:10.664Z,6.03
2018-04-09T00:20:37.688Z,9.03
2018-04-09T00:23:04.779Z,7.90
2018-04-09T00:25:31.877Z,9.07
2018-04-09T00:30:40.856Z,8.07
2018-04-09T00:33:08.640Z,8.60
2018-04-09T00:35:35.644Z,6.33
2018-04-09T00:38:02.719Z,5.50
2018-04-09T00:40:29.825Z,7.63
2018-04-09T00:42:56.844Z,7.70
2018-04-09T00:45:23.881Z,4.77
2018-04-09T00:47:50.892Z,7.30
2018-04-09T00:50:18.719Z,4.10
2018-04-09T00:52:45.774Z,5.90
2018-04-09T00:55:12.777Z,5.13
2018-04-09T00:57:39.800Z,9.93
2018-04-09T01:00:06.838Z,8.70
2018-04-09T01:02:33.859Z,3.90
2018-04-09T01:05:00.896Z,5.87
2018-04-09T01:07:27.943Z,4.67
2018-04-09T01:09:54.973Z,8.60
2018-04-09T01:12:21.981Z,5.93
2018-04-09T01:14:49.019Z,6.13
2018-04-09T01:17:16.099Z,5.53
2018-04-09T01:19:44.089Z,5.03
2018-04-09T01:22:11.147Z,8.17
2018-04-09T01:24:38.149Z,5.23
2018-04-09T01:27:05.170Z,6.70
2018-04-09T01:29:32.234Z,6.43
2018-04-09T01:31:59.256Z,8.30
2018-04-09T01:34:26.322Z,7.57
2018-04-09T01:36:53.876Z,4.57
2018-04-09T01:39:21.312Z,7.90
2018-04-09T01:41:48.329Z,9.03
2018-04-09T01:44:15.373Z,10.47
2018-04-09T01:46:42.404Z,6.67
2018-04-09T01:49:09.433Z,8.90
2018-04-09T01:54:15.196Z,8.35
2018-04-09T01:56:42.241Z,8.43
2018-04-09T01:59:09.267Z,5.33
2018-04-09T02:01:36.287Z,7.80
2018-04-09T02:04:03.320Z,4.97
2018-04-09T02:06:30.325Z,5.57
2018-04-09T02:08:57.340Z,4.47
2018-04-09T02:11:24.746Z,5.07
2018-04-09T02:13:51.590Z,5.23
2018-04-09T02:16:18.611Z,6.50
2018-04-09T02:18:45.676Z,7.40
2018-04-09T02:21:12.726Z,6.20
2018-04-09T02:26:17.867Z,10.00
2018-04-09T02:28:45.290Z,5.10
2018-04-09T02:31:12.396Z,8.03
2018-04-09T02:33:39.430Z,6.23
2018-04-09T02:36:06.454Z,6.63
2018-04-09T02:38:33.480Z,6.60
2018-04-09T02:41:01.488Z,5.03
2018-04-09T02:43:28.477Z,7.00
2018-04-09T02:45:55.568Z,8.33
2018-04-09T02:51:00.725Z,11.95
2018-04-09T02:53:27.765Z,8.30
2018-04-09T02:55:54.780Z,5.30
2018-04-09T02:58:21.823Z,6.07
2018-04-09T03:00:48.946Z,4.53
2018-04-09T03:03:15.953Z,4.43
2018-04-09T03:05:42.965Z,7.97
2018-04-09T03:08:10.108Z,6.20
2018-04-09T03:10:37.203Z,10.87
2018-04-09T03:13:04.214Z,9.13
2018-04-09T03:15:31.245Z,9.97
2018-04-09T03:17:58.339Z,8.07
2018-04-09T03:20:25.350Z,6.93
2018-04-09T03:22:55.442Z,9.90
2018-04-09T03:25:22.414Z,6.23
2018-04-09T03:27:49.656Z,9.03
2018-04-09T03:30:16.686Z,7.83
2018-04-09T03:32:43.691Z,7.60
2018-04-09T03:35:10.688Z,9.83
2018-04-09T03:37:38.241Z,7.13
2018-04-09T03:40:06.067Z,6.90
2018-04-09T03:42:33.066Z,7.73
2018-04-09T03:45:00.123Z,4.33
2018-04-09T03:47:27.122Z,9.63
2018-04-09T03:49:54.116Z,9.20
2018-04-09T03:52:21.157Z,5.97
2018-04-09T03:54:48.204Z,9.00
2018-04-09T03:57:15.212Z,7.33
2018-04-09T03:59:42.255Z,4.43
2018-04-09T04:02:09.251Z,8.23
2018-04-09T04:04:36.285Z,8.00
2018-04-09T04:07:03.313Z,8.73
2018-04-09T04:09:30.308Z,7.27
2018-04-09T04:12:03.250Z,8.37
2018-04-09T04:17:20.620Z,10.90
2018-04-09T04:19:59.573Z,6.23
2018-04-09T04:22:26.606Z,9.87
2018-04-09T04:24:53.590Z,7.27
2018-04-09T04:27:20.627Z,8.73
2018-04-09T04:29:47.625Z,8.07
2018-04-09T04:32:14.624Z,8.27
2018-04-09T04:34:42.188Z,7.47
2018-04-09T04:37:09.197Z,7.03
2018-04-09T04:39:36.188Z,11.73
2018-04-09T04:42:03.723Z,6.97
2018-04-09T04:44:31.698Z,10.40
2018-04-09T04:46:58.922Z,6.73
2018-04-09T04:49:25.938Z,8.17
2018-04-09T04:51:53.173Z,11.03
2018-04-09T04:54:20.206Z,5.30
2018-04-09T04:56:47.315Z,8.13
2018-04-09T04:59:14.338Z,7.77
2018-04-09T05:01:42.640Z,8.20
2018-04-09T05:04:09.708Z,6.70
2018-04-09T05:06:36.806Z,9.50
2018-04-09T05:11:42.268Z,8.27
2018-04-09T05:14:09.278Z,15.13
2018-04-09T05:16:36.280Z,13.00
2018-04-09T05:19:04.629Z,12.40
2018-04-09T05:21:31.628Z,9.23
2018-04-09T05:23:58.634Z,10.87
2018-04-09T05:26:25.924Z,10.50
2018-04-09T05:28:52.906Z,9.43
2018-04-09T05:31:26.867Z,8.70
2018-04-09T05:33:53.992Z,9.27
2018-04-09T05:36:28.257Z,11.17
2018-04-09T05:38:55.584Z,11.87
2018-04-09T05:41:22.590Z,13.40
2018-04-09T05:46:24.831Z,13.65
2018-04-09T05:48:51.874Z,10.27
2018-04-09T05:53:59.101Z,12.80
2018-04-09T05:56:26.112Z,11.73
2018-04-09T05:58:53.831Z,8.43
2018-04-09T06:01:20.889Z,16.40
2018-04-09T06:03:47.907Z,10.40
2018-04-09T06:06:14.935Z,14.03
2018-04-09T06:08:41.972Z,7.77
2018-04-09T06:11:09.963Z,6.60
2018-04-09T06:13:36.960Z,6.13
2018-04-09T06:16:04.944Z,8.23
2018-04-09T06:18:31.933Z,7.30
2018-04-09T06:26:22.622Z,10.88
2018-04-09T06:28:49.670Z,11.23
2018-04-09T06:31:17.517Z,12.23
2018-04-09T06:33:44.531Z,11.67
2018-04-09T06:36:14.292Z,17.63
2018-04-09T06:38:41.102Z,8.77
2018-04-09T06:41:10.077Z,9.87
2018-04-09T06:43:37.593Z,9.33
2018-04-09T06:48:43.616Z,11.88
2018-04-09T06:51:11.907Z,13.73
2018-04-09T06:53:39.882Z,16.60
2018-04-09T06:56:07.892Z,11.70
2018-04-09T07:01:16.067Z,11.35
2018-04-09T07:03:43.111Z,9.67
2018-04-09T07:06:14.157Z,11.43
2018-04-09T07:08:42.156Z,10.70
2018-04-09T07:11:10.121Z,13.90
2018-04-09T07:13:38.589Z,8.37
2018-04-09T07:16:11.519Z,13.50
2018-04-09T07:18:43.945Z,11.67
2018-04-09T07:21:14.400Z,8.63
2018-04-09T07:23:45.167Z,9.83
2018-04-09T07:26:14.866Z,8.57
2018-04-09T07:28:44.688Z,11.13
2018-04-09T07:31:19.138Z,13.13
2018-04-09T07:33:46.158Z,12.00
2018-04-09T07:36:17.447Z,15.87
2018-04-09T07:41:24.463Z,10.70
2018-04-09T07:46:35.349Z,10.68
2018-04-09T07:49:03.665Z,10.47
2018-04-09T07:54:13.993Z,9.80
2018-04-09T07:56:45.734Z,13.83
2018-04-09T07:59:16.447Z,17.67
2018-04-09T08:04:31.273Z,14.90
2018-04-09T08:06:59.165Z,12.77
2018-04-09T08:09:26.916Z,11.93
2018-04-09T08:11:57.215Z,9.80
2018-04-09T08:14:26.141Z,12.33
2018-04-09T08:16:57.261Z,9.93
2018-04-09T08:19:27.547Z,13.33
2018-04-09T08:21:56.511Z,16.00
2018-04-09T08:24:23.636Z,9.73
2018-04-09T08:29:34.272Z,14.98
2018-04-09T08:32:01.257Z,8.67
2018-04-09T08:34:28.289Z,9.70
2018-04-09T08:36:59.206Z,12.50
2018-04-09T08:39:27.090Z,6.20
2018-04-09T08:47:26.889Z,11.23
2018-04-09T09:06:27.375Z,13.60
2018-04-09T09:08:57.328Z,12.50
2018-04-09T09:11:25.774Z,10.10
2018-04-09T09:14:00.163Z,10.97
2018-04-09T09:16:35.189Z,7.47
2018-04-09T09:21:57.526Z,10.93
2018-04-09T09:35:32.865Z,17.10
2018-04-09T09:38:04.757Z,7.47
2018-04-09T09:49:06.644Z,14.30
2018-04-09T09:51:36.232Z,17.57
2018-04-09T09:54:12.678Z,6.87
2018-04-09T09:56:45.673Z,14.70
2018-04-09T10:23:06.307Z,12.60
2018-04-09T10:31:07.405Z,2.90
2018-04-09T10:33:40.393Z,4.30
2018-04-09T10:36:11.224Z,3.20
2018-04-09T10:38:44.543Z,4.33
2018-04-09T10:41:19.138Z,3.10
2018-04-09T10:43:52.560Z,4.20
2018-04-09T10:46:25.522Z,4.97
2018-04-09T10:49:01.539Z,3.43
2018-04-09T10:51:33.073Z,5.97
2018-04-09T10:54:00.110Z,3.80
2018-04-09T10:56:29.299Z,2.57
2018-04-09T10:59:01.465Z,3.43
2018-04-09T11:01:35.062Z,4.33
2018-04-09T11:04:11.382Z,1.40
2018-04-09T11:09:26.184Z,3.20
2018-04-09T11:20:11.482Z,3.67
2018-04-09T11:22:48.632Z,6.37
2018-04-09T11:28:13.874Z,1.57
2018-04-09T11:30:46.965Z,2.77
2018-04-09T11:33:27.852Z,4.50
2018-04-09T11:36:01.008Z,1.90
2018-04-09T11:38:34.157Z,4.10
2018-04-09T11:41:09.224Z,1.80
2018-04-09T11:43:42.346Z,2.63
2018-04-09T11:46:22.935Z,2.00
2018-04-09T11:48:55.985Z,4.60
2018-04-09T11:51:29.650Z,5.30
2018-04-09T11:54:02.521Z,4.20
2018-04-09T11:56:33.207Z,3.70
2018-04-09T11:59:05.238Z,5.63
2018-04-09T12:01:38.349Z,3.67
2018-04-09T12:04:05.441Z,3.80
2018-04-09T12:09:24.137Z,2.67
2018-04-09T14:28:04.403Z,3.57
2018-04-09T14:33:12.749Z,3.20
2018-04-09T14:44:10.996Z,4.60
2018-04-09T14:54:58.983Z,5.10
2018-04-09T14:57:33.880Z,2.80
2018-04-09T15:08:31.565Z,3.43
2018-04-09T15:11:09.497Z,5.40
2018-04-09T15:13:39.902Z,4.63
2018-04-09T15:16:12.825Z,5.37
2018-04-09T15:23:25.432Z,4.20
2018-04-09T15:25:58.910Z,3.03
2018-04-09T15:28:33.882Z,8.27
2018-04-09T15:31:00.921Z,4.10
2018-04-09T15:33:37.296Z,6.93
2018-04-09T15:57:46.403Z,5.10
2018-04-09T16:00:20.429Z,4.13
2018-04-09T16:19:11.328Z,9.33
2018-04-09T16:21:54.179Z,5.27
2018-04-09T16:24:27.684Z,4.03
2018-04-09T16:27:03.695Z,3.30
2018-04-09T16:35:03.185Z,8.03
2018-04-09T16:37:30.937Z,3.30
2018-04-09T16:39:59.350Z,4.03
2018-04-09T16:42:26.423Z,4.10
2018-04-09T16:44:53.462Z,6.70
2018-04-09T16:47:20.865Z,7.03
2018-04-09T16:49:49.345Z,7.03
2018-04-09T16:52:23.426Z,9.90
2018-04-09T17:14:01.265Z,4.23
2018-04-09T17:19:19.228Z,4.32
2018-04-09T17:38:29.127Z,3.10
2018-04-09T18:00:17.936Z,5.53
2018-04-09T18:02:44.980Z,6.23
2018-04-09T18:05:11.993Z,3.53
2018-04-09T18:07:41.714Z,4.67
2018-04-09T18:10:09.598Z,10.27
2018-04-09T18:15:21.622Z,4.15
2018-04-09T18:17:48.619Z,6.37
2018-04-09T18:20:15.617Z,6.80
2018-04-09T18:22:42.674Z,3.53
2018-04-09T18:25:15.355Z,4.13
2018-04-09T18:27:42.402Z,2.90
2018-04-09T18:30:10.300Z,3.93
2018-04-09T18:32:37.578Z,4.10
2018-04-09T18:35:05.423Z,5.23
2018-04-09T18:37:32.469Z,5.03
2018-04-09T18:39:59.502Z,3.47
2018-04-09T18:42:26.581Z,2.60
2018-04-09T18:44:53.564Z,6.67
2018-04-09T18:47:20.564Z,7.13
2018-04-09T18:49:47.598Z,4.90
2018-04-09T18:52:14.593Z,2.20
2018-04-09T18:54:41.685Z,4.50
2018-04-09T18:57:09.472Z,3.53
2018-04-09T18:59:39.243Z,3.50
2018-04-09T19:02:04.215Z,9.90
2018-04-09T19:04:31.205Z,3.37
2018-04-09T19:06:58.383Z,7.03
2018-04-09T19:09:25.348Z,3.63
2018-04-09T19:11:56.434Z,4.77
2018-04-09T19:14:23.457Z,6.03
2018-04-09T19:16:50.458Z,4.13
2018-04-09T19:19:17.484Z,3.50
2018-04-09T19:21:44.507Z,6.07
2018-04-09T19:24:11.579Z,2.87
2018-04-09T19:26:38.660Z,3.03
2018-04-09T19:31:44.854Z,4.25
2018-04-09T19:34:11.291Z,5.00
2018-04-09T19:36:38.278Z,3.67
2018-04-09T19:39:05.324Z,2.60
2018-04-09T19:41:32.364Z,7.63
2018-04-09T19:43:59.317Z,6.13
2018-04-09T19:46:26.952Z,3.20
2018-04-09T19:48:53.955Z,3.67
2018-04-09T19:51:21.014Z,4.53
2018-04-09T19:53:48.032Z,3.23
2018-04-09T19:56:15.483Z,2.50
2018-04-09T19:58:42.385Z,4.43
2018-04-09T20:01:09.405Z,3.00
2018-04-09T20:03:39.289Z,3.57
2018-04-09T20:06:03.374Z,2.07
2018-04-09T20:08:30.515Z,2.80
2018-04-09T20:10:57.450Z,2.70
2018-04-09T20:13:24.436Z,2.23
2018-04-09T20:15:51.461Z,3.13
2018-04-09T20:18:18.441Z,4.17
2018-04-09T20:20:46.974Z,1.97
2018-04-09T20:23:13.977Z,3.83
2018-04-09T20:25:40.960Z,2.73
2018-04-09T20:28:07.972Z,2.60
2018-04-09T20:30:34.991Z,4.60
2018-04-09T20:33:01.976Z,3.67
2018-04-09T20:35:28.955Z,3.47
2018-04-09T20:37:55.983Z,2.00
2018-04-09T20:40:22.955Z,5.77
2018-04-09T20:42:49.942Z,2.33
2018-04-09T20:45:16.952Z,2.33
2018-04-09T20:47:43.931Z,4.90
2018-04-09T20:50:10.917Z,3.87
2018-04-09T20:52:37.939Z,2.80
2018-04-09T21:00:22.067Z,4.00
2018-04-09T21:02:49.089Z,3.80
2018-04-09T21:05:16.071Z,3.00
2018-04-09T21:07:43.084Z,5.67
2018-04-09T21:10:10.106Z,2.60
2018-04-09T21:12:37.087Z,2.40
2018-04-09T21:15:04.061Z,2.47
2018-04-09T21:17:31.082Z,5.97
2018-04-09T21:19:58.088Z,2.70
2018-04-09T21:22:25.044Z,3.83
2018-04-09T21:24:52.048Z,2.67
2018-04-09T21:27:19.036Z,2.40
2018-04-09T21:29:46.023Z,4.93
2018-04-09T21:32:15.934Z,2.77
2018-04-09T21:34:42.922Z,4.07
2018-04-09T21:37:09.902Z,4.20
2018-04-09T21:39:36.925Z,5.77
2018-04-09T21:42:03.972Z,5.10
2018-04-09T21:44:31.047Z,4.60
2018-04-09T21:46:58.089Z,5.10
2018-04-09T21:49:25.070Z,3.33
2018-04-09T21:51:52.048Z,3.13
2018-04-09T21:54:19.393Z,4.47
2018-04-09T21:56:46.379Z,5.30
2018-04-09T21:59:13.371Z,3.93
2018-04-09T22:01:40.394Z,5.73
2018-04-09T22:04:07.378Z,4.70
2018-04-09T22:06:34.363Z,3.33
2018-04-09T22:09:01.380Z,3.23
2018-04-09T22:11:28.457Z,4.07
2018-04-09T22:13:55.445Z,5.93
2018-04-09T22:16:22.496Z,4.50
2018-04-09T22:18:49.480Z,3.33
2018-04-09T22:23:54.967Z,3.35
2018-04-09T22:26:21.961Z,5.00
2018-04-09T22:28:48.982Z,5.80
2018-04-09T22:31:16.934Z,4.00
2018-04-09T22:33:45.982Z,4.60
2018-04-09T22:38:54.519Z,3.47
2018-04-09T22:41:22.543Z,3.70
2018-04-09T22:43:49.591Z,7.20
2018-04-09T22:46:16.632Z,5.17
2018-04-09T22:48:44.107Z,5.43
2018-04-09T22:51:11.110Z,3.87
2018-04-09T22:53:38.503Z,5.50
2018-04-09T23:02:15.100Z,5.80
2018-04-09T23:04:16.493Z,5.47
2018-04-09T23:12:02.354Z,5.57
2018-04-09T23:14:29.082Z,5.73
2018-04-09T23:16:56.092Z,3.20
2018-04-09T23:19:23.090Z,3.93
2018-04-09T23:21:50.546Z,5.30
2018-04-09T23:24:17.532Z,3.90
2018-04-09T23:26:46.290Z,4.70
2018-04-09T23:29:13.315Z,7.07
2018-04-09T23:31:41.151Z,3.20
2018-04-09T23:34:08.143Z,2.60
2018-04-09T23:36:35.405Z,4.73
2018-04-09T23:39:02.478Z,4.60
2018-04-09T23:41:29.471Z,4.40
2018-04-09T23:43:56.506Z,5.27
2018-04-09T23:46:23.503Z,5.33
2018-04-09T23:48:50.492Z,12.83
2018-04-09T23:51:17.514Z,12.03
2018-04-09T23:53:44.510Z,4.80
2018-04-09T23:56:11.502Z,7.13
2018-04-09T23:58:38.547Z,7.67
